Bristol, VA

12:11 PM EDT on August 30, 2014 (GMT -0400)
Reedy Creek Road | Change Station
CLOSE
Current Station
Personal Weather Station
Location: Bristol, VA
Elevation: 1998 ft
Nearby Weather Stations

Elev 1998 ft 36.63 °N, 82.23 °W | Updated 9 minutes ago

Clear
Clear
86.2 °F
Feels Like 83 °F
N
0.0
Wind Variable Wind from North
Gusts 0.0 mph

Today
High -- | Low -- °F
--% Chance of Precip.
Yesterday
High -- | Low -- °F
Precip. -- in
6:58 AM 7:59 PM
Waxing Crescent, 23% visible
Pressure 30.24 in
Visibility 10.0 miles
Clouds Clear
Heat Index 83 °F
Dew Point 42 °F
Humidity 21%
Rainfall 0.00 in
Snow Depth Not available.
UV 9 out of 12
Pollen 9.30 out of 12
Air Quality Not available.
Flu Activity Not available.
METAR KVJI 301555Z AUTO 17004KT 10SM CLR 29/19 A3024 RMK AO2 T02920190

More Conditions Fewer Conditions

Pressure 30.24 in
Visibility 10.0 miles
Clouds Clear
Heat Index 83 °F
Dew Point 42 °F
Humidity 21%
Rainfall 0.00 in
Snow Depth Not available.
UV 9 out of 12
Pollen 9.30 out of 12
Air Quality Not available.
Flu Activity Not available.
METAR KVJI 301555Z AUTO 17004KT 10SM CLR 29/19 A3024 RMK AO2 T02920190

More Conditions Fewer Conditions

10-Day Weather Forecast

Almanac

Astronomy

Aug. 30, 2014 Rise Set
Actual Time 6:58 AM EDT 7:59 PM EDT
Civil Twilight 6:31 AM EDT 8:26 PM EDT
Nautical Twilight 6:00 AM EDT 8:57 PM EDT
Astronomical Twilight 5:27 AM EDT 9:30 PM EDT
Moon 11:36 AM EDT 10:42 PM EDT
Length of Visible Light 13h 54m
Length of Day
13h 01m
Tomorrow will be 2m 13s shorter.
Waxing Crescent, 23% of the Moon is Illuminated
Today
Waxing Crescent
Sep 2
First Quarter
Sep 8
Full
Sep 15
Last Quarter
Sep 24
New

Today's Extremes

State Highs State Lows

Community

WunderPhotos

Upload Photos

1,748,556 photos uploaded!

WunderBlogs® & News

Nearby

Snow Depth

Station Depth Elevation
No new snow has been reported.

Earthquake Activity

City Distance Mag. Time & Date
No recent earthquake activity has been reported nearby.
Minimum magnitude displayed is 2.5.

Coastal Water Temperatures

Place Temperature
No Stations Reporting

Nearby Weather Stations